Time;durP1;ratioP1;P1;durP2;ratioP2;P2;SDS_P1;SDS_P2;PMS_P1;PMS_P2;Temp;Humidity;BMP_temperature;BMP_pressure;BME280_temperature;BME280_humidity;BME280_pressure;Samples;Min_cycle;Max_cycle;Signal;HPM_P1;HPM_P2
2021/03/04 00:00:27;;;;;;;;;;;;;;;17.36;39.36;100626.50;4415564;32;20939;-51
2021/03/04 00:02:53;;;;;;;;;;;;;;;17.36;39.18;100615.06;4415760;32;19950;-49
2021/03/04 00:05:19;;;;;;;;;;;;;;;17.33;39.41;100615.88;4414415;32;19961;-53
2021/03/04 00:07:45;;;;;;;;;;;;;;;17.36;39.20;100617.72;4411392;32;20291;-52
2021/03/04 00:10:11;;;;;;;;;;;;;;;17.34;39.29;100615.03;4415812;32;19993;-51
2021/03/04 00:12:37;;;;;;;;;;;;;;;17.35;39.34;100611.56;4415002;32;20287;-50
2021/03/04 00:15:03;;;;;;;;;;;;;;;17.34;39.43;100614.16;4415424;32;19950;-53
2021/03/04 00:17:29;;;;;;;;;;;;;;;17.30;39.59;100618.41;4413732;32;20431;-53
2021/03/04 00:19:54;;;;;;;;;;;;;;;17.36;39.28;100612.44;4414998;32;20006;-53
2021/03/04 00:22:20;;;;;;;;;;;;;;;17.33;39.23;100612.38;4411326;32;20027;-51
2021/03/04 00:24:46;;;;;;;;;;;;;;;17.32;39.46;100607.94;4415714;32;20328;-49
2021/03/04 00:27:12;;;;;;;;;;;;;;;17.28;39.48;100613.13;4413739;32;19976;-52
2021/03/04 00:29:38;;;;;;;;;;;;;;;17.31;39.47;100614.94;4415209;32;19957;-51
2021/03/04 00:32:04;;;;;;;;;;;;;;;17.26;39.64;100613.94;4414371;32;19954;-51
2021/03/04 00:34:30;;;;;;;;;;;;;;;17.31;39.57;100611.44;4415486;32;20290;-50
2021/03/04 00:36:56;;;;;;;;;;;;;;;17.31;39.29;100607.03;4416662;32;19954;-50
2021/03/04 00:39:21;;;;;;;;;;;;;;;17.41;39.26;100598.56;4417722;32;19977;-54
2021/03/04 00:41:47;;;;;;;;;;;;;;;17.31;39.50;100596.50;4418228;32;19984;-51
2021/03/04 00:44:13;;;;;;;;;;;;;;;17.27;39.61;100594.66;4417091;32;19989;-53
2021/03/04 00:46:39;;;;;;;;;;;;;;;17.30;39.28;100600.00;4416603;32;20343;-51
2021/03/04 00:49:05;;;;;;;;;;;;;;;17.26;39.58;100591.12;4416616;32;19951;-53
2021/03/04 00:51:31;;;;;;;;;;;;;;;17.27;39.44;100595.53;4417114;32;19969;-50
2021/03/04 00:53:57;;;;;;;;;;;;;;;17.28;39.51;100591.16;4417094;32;20324;-49
2021/03/04 00:56:22;;;;;;;;;;;;;;;17.27;39.62;100589.37;4418335;32;20033;-51
2021/03/04 00:58:48;;;;;;;;;;;;;;;17.28;39.59;100591.16;4417021;32;19958;-50
2021/03/04 01:01:14;;;;;;;;;;;;;;;17.30;39.63;100584.19;4416993;32;19958;-52
2021/03/04 01:03:40;;;;;;;;;;;;;;;17.31;39.32;100591.25;4417732;32;20375;-52
2021/03/04 01:06:06;;;;;;;;;;;;;;;17.23;39.53;100582.25;4416689;32;20012;-54
2021/03/04 01:08:32;;;;;;;;;;;;;;;17.26;39.67;100583.22;4415744;32;19969;-53
2021/03/04 01:10:58;;;;;;;;;;;;;;;17.27;39.46;100573.59;4418006;32;20018;-52
2021/03/04 01:13:24;;;;;;;;;;;;;;;17.27;39.36;100579.72;4417521;32;19950;-50
2021/03/04 01:15:49;;;;;;;;;;;;;;;17.27;39.50;100569.22;4416803;32;19958;-51
2021/03/04 01:18:15;;;;;;;;;;;;;;;17.23;39.46;100561.22;4415812;32;20009;-52
2021/03/04 01:20:41;;;;;;;;;;;;;;;17.20;39.53;100556.75;4417350;32;20418;-53
2021/03/04 01:23:07;;;;;;;;;;;;;;;17.21;39.59;100563.78;4416279;32;20049;-51
2021/03/04 01:25:33;;;;;;;;;;;;;;;17.22;39.70;100554.12;4416022;32;19969;-55
2021/03/04 01:27:59;;;;;;;;;;;;;;;17.25;39.44;100549.84;4416262;32;19982;-53
2021/03/04 01:30:25;;;;;;;;;;;;;;;17.19;39.66;100543.53;4416792;32;20308;-54
2021/03/04 01:32:51;;;;;;;;;;;;;;;17.24;39.73;100544.56;4417739;32;19950;-53
2021/03/04 01:35:16;;;;;;;;;;;;;;;17.27;39.47;100534.12;4415478;32;19972;-53
2021/03/04 01:37:42;;;;;;;;;;;;;;;17.22;39.50;100528.72;4416269;32;19997;-51
2021/03/04 01:40:08;;;;;;;;;;;;;;;17.20;39.69;100529.50;4416701;32;19969;-52
2021/03/04 01:42:34;;;;;;;;;;;;;;;17.22;39.60;100527.81;4416870;32;20343;-51
2021/03/04 01:45:00;;;;;;;;;;;;;;;17.24;39.40;100523.50;4417062;32;19964;-51
2021/03/04 01:47:26;;;;;;;;;;;;;;;17.24;39.69;100518.25;4415866;32;19946;-54
2021/03/04 01:49:52;;;;;;;;;;;;;;;17.19;39.66;100511.94;4414864;32;21218;-50
2021/03/04 01:52:18;;;;;;;;;;;;;;;17.25;39.51;100518.25;4414720;32;19991;-53
2021/03/04 01:54:44;;;;;;;;;;;;;;;17.20;39.46;100513.72;4417200;32;20353;-53
2021/03/04 01:57:10;;;;;;;;;;;;;;;17.16;39.59;100506.59;4416222;32;19965;-52
2021/03/04 01:59:36;;;;;;;;;;;;;;;17.26;39.31;100513.91;4417538;32;19958;-49
2021/03/04 02:02:02;;;;;;;;;;;;;;;17.28;39.35;100518.37;4416696;32;19969;-50
2021/03/04 02:04:28;;;;;;;;;;;;;;;17.26;39.42;100508.66;4421616;32;20019;-52
2021/03/04 02:06:54;;;;;;;;;;;;;;;17.27;39.34;100510.44;4425415;32;20375;-52
2021/03/04 02:09:20;;;;;;;;;;;;;;;17.18;39.46;100500.53;4432475;32;19976;-50
2021/03/04 02:11:46;;;;;;;;;;;;;;;17.16;39.63;100501.34;4430091;32;20023;-48
2021/03/04 02:14:11;;;;;;;;;;;;;;;17.20;39.44;100504.09;4430200;32;19986;-53
2021/03/04 02:16:37;;;;;;;;;;;;;;;17.22;39.52;100496.22;4431882;32;20255;-54
2021/03/04 02:19:03;;;;;;;;;;;;;;;17.18;39.45;100494.37;4426499;32;19946;-53
2021/03/04 02:21:30;;;;;;;;;;;;;;;17.16;39.64;100490.81;4431404;32;19980;-48
2021/03/04 02:23:56;;;;;;;;;;;;;;;17.14;39.56;100483.78;4430072;32;19945;-49
2021/03/04 02:26:22;;;;;;;;;;;;;;;17.17;39.52;100482.97;4426485;32;19958;-50
2021/03/04 02:28:48;;;;;;;;;;;;;;;17.19;39.36;100486.53;4426935;32;20305;-50
2021/03/04 02:31:14;;;;;;;;;;;;;;;17.14;39.59;100483.78;4430454;32;19954;-53
2021/03/04 02:33:40;;;;;;;;;;;;;;;17.19;39.39;100485.63;4428335;32;20026;-48
2021/03/04 02:36:06;;;;;;;;;;;;;;;17.10;39.64;100481.91;4430468;32;19950;-54
2021/03/04 02:38:32;;;;;;;;;;;;;;;17.07;39.71;100473.03;4429370;32;19958;-51
2021/03/04 02:40:57;;;;;;;;;;;;;;;17.13;39.60;100462.66;4432028;32;19953;-53
2021/03/04 02:43:23;;;;;;;;;;;;;;;17.16;39.49;100456.59;4428884;32;19968;-49
2021/03/04 02:45:49;;;;;;;;;;;;;;;17.09;39.68;100453.78;4431103;32;19949;-52
2021/03/04 02:48:15;;;;;;;;;;;;;;;17.16;39.63;100456.59;4428748;32;19953;-54
2021/03/04 02:50:41;;;;;;;;;;;;;;;17.08;39.69;100457.28;4430888;32;20373;-51
2021/03/04 02:53:07;;;;;;;;;;;;;;;17.11;39.55;100457.37;4428538;32;19958;-50
2021/03/04 02:55:33;;;;;;;;;;;;;;;17.09;39.76;100458.19;4431389;32;20713;-50
2021/03/04 02:57:59;;;;;;;;;;;;;;;17.06;39.59;100453.72;4427119;32;19954;-50
2021/03/04 03:00:24;;;;;;;;;;;;;;;17.12;39.58;100456.53;4430029;32;19961;-52
2021/03/04 03:02:50;;;;;;;;;;;;;;;17.10;39.49;100450.34;4427920;32;20033;-53
2021/03/04 03:05:16;;;;;;;;;;;;;;;17.12;39.52;100448.62;4422959;32;19993;-51
2021/03/04 03:07:42;;;;;;;;;;;;;;;17.13;39.65;100445.16;4425939;32;20334;-49
2021/03/04 03:10:08;;;;;;;;;;;;;;;17.13;39.67;100444.25;4430443;32;19988;-51
2021/03/04 03:12:34;;;;;;;;;;;;;;;17.09;39.72;100440.63;4430529;32;19957;-49
2021/03/04 03:15:00;;;;;;;;;;;;;;;17.05;39.68;100424.75;4429686;32;19941;-50
2021/03/04 03:17:26;;;;;;;;;;;;;;;17.08;39.60;100424.81;4426405;32;20454;-48
2021/03/04 03:19:51;;;;;;;;;;;;;;;17.03;39.72;100426.44;4428621;32;19957;-51
2021/03/04 03:22:17;;;;;;;;;;;;;;;17.08;39.67;100423.06;4426655;32;19973;-52
2021/03/04 03:24:43;;;;;;;;;;;;;;;17.06;39.67;100430.03;4425240;32;20276;-52
2021/03/04 03:27:09;;;;;;;;;;;;;;;17.06;39.76;100426.53;4429807;32;19965;-52
2021/03/04 03:29:35;;;;;;;;;;;;;;;17.04;39.63;100426.47;4427871;32;19954;-50
2021/03/04 03:32:01;;;;;;;;;;;;;;;17.01;39.67;100426.41;4423587;32;20035;-51
2021/03/04 03:34:27;;;;;;;;;;;;;;;17.03;39.64;100431.69;4429501;32;19976;-52
2021/03/04 03:36:53;;;;;;;;;;;;;;;17.05;39.58;100424.75;4425571;32;20372;-51
2021/03/04 03:39:19;;;;;;;;;;;;;;;17.04;39.70;100421.22;4423576;32;20001;-51
2021/03/04 03:41:44;;;;;;;;;;;;;;;17.00;39.74;100416.72;4426752;32;19968;-53
2021/03/04 03:44:10;;;;;;;;;;;;;;;17.02;39.69;100425.56;4427582;32;20026;-52
2021/03/04 03:46:36;;;;;;;;;;;;;;;17.01;39.60;100415.88;4427537;32;19962;-53
2021/03/04 03:49:02;;;;;;;;;;;;;;;16.95;39.95;100418.28;4428373;32;19974;-49
2021/03/04 03:51:28;;;;;;;;;;;;;;;16.98;39.88;100408.75;4430845;32;19941;-51
2021/03/04 03:53:54;;;;;;;;;;;;;;;16.95;39.93;100413.03;4427671;32;19968;-51
2021/03/04 03:56:20;;;;;;;;;;;;;;;17.02;39.64;100414.13;4429910;32;19999;-53
2021/03/04 03:58:46;;;;;;;;;;;;;;;16.97;39.71;100413.97;4430209;32;19946;-50
2021/03/04 04:01:12;;;;;;;;;;;;;;;16.96;39.75;100413.09;4430629;32;20030;-51
2021/03/04 04:03:38;;;;;;;;;;;;;;;17.03;39.58;100415.91;4430972;32;20410;-51
2021/03/04 04:06:04;;;;;;;;;;;;;;;16.98;39.78;100414.00;4428253;32;19961;-51
2021/03/04 04:08:29;;;;;;;;;;;;;;;17.00;39.87;100414.09;4428000;32;19972;-50
2021/03/04 04:10:55;;;;;;;;;;;;;;;17.01;39.71;100410.63;4430830;32;20287;-51
2021/03/04 04:13:21;;;;;;;;;;;;;;;16.97;39.71;100408.69;4430013;32;20000;-53
2021/03/04 04:15:47;;;;;;;;;;;;;;;17.01;39.71;100402.72;4431760;32;20337;-52
2021/03/04 04:18:13;;;;;;;;;;;;;;;16.99;39.55;100394.78;4430284;32;19954;-54
2021/03/04 04:20:39;;;;;;;;;;;;;;;16.96;39.81;100393.75;4425439;32;20017;-51
2021/03/04 04:23:05;;;;;;;;;;;;;;;16.93;39.83;100391.06;4426324;32;19993;-54
2021/03/04 04:25:31;;;;;;;;;;;;;;;16.96;39.80;100386.78;4425742;32;20036;-52
2021/03/04 04:27:57;;;;;;;;;;;;;;;16.98;39.70;100386.84;4431401;32;19994;-53
2021/03/04 04:30:23;;;;;;;;;;;;;;;16.92;39.74;100386.66;4433316;32;20055;-50
2021/03/04 04:32:48;;;;;;;;;;;;;;;16.99;39.64;100389.50;4431745;32;19942;-50
2021/03/04 04:35:14;;;;;;;;;;;;;;;16.97;39.66;100390.28;4430297;32;19973;-52
2021/03/04 04:37:40;;;;;;;;;;;;;;;16.96;39.80;100393.75;4429050;32;19958;-53
2021/03/04 04:40:06;;;;;;;;;;;;;;;16.92;39.86;100390.19;4431490;32;19954;-50
2021/03/04 04:42:32;;;;;;;;;;;;;;;16.90;39.72;100383.09;4431488;32;19942;-53
2021/03/04 04:44:58;;;;;;;;;;;;;;;16.90;39.81;100380.47;4426320;32;20002;-53
2021/03/04 04:47:24;;;;;;;;;;;;;;;16.94;39.70;100372.69;4426473;32;20443;-51
2021/03/04 04:49:50;;;;;;;;;;;;;;;17.00;39.51;100362.34;4429953;32;19972;-53
2021/03/04 04:52:16;;;;;;;;;;;;;;;16.95;39.71;100353.44;4426287;32;20003;-51
2021/03/04 04:54:41;;;;;;;;;;;;;;;16.91;39.81;100354.19;4428855;32;19961;-54
2021/03/04 04:57:07;;;;;;;;;;;;;;;16.92;39.64;100353.34;4424488;32;19990;-52
2021/03/04 04:59:33;;;;;;;;;;;;;;;16.94;39.80;100363.91;4429507;32;20350;-49
2021/03/04 05:01:59;;;;;;;;;;;;;;;16.93;39.75;100356.88;4426376;32;19978;-53
2021/03/04 05:04:25;;;;;;;;;;;;;;;17.02;39.51;100345.72;4424483;32;19958;-51
2021/03/04 05:06:51;;;;;;;;;;;;;;;16.96;39.59;100341.16;4425827;32;19993;-52
2021/03/04 05:09:17;;;;;;;;;;;;;;;16.92;39.67;100334.03;4429362;32;20328;-51
2021/03/04 05:11:43;;;;;;;;;;;;;;;16.84;39.92;100344.38;4425929;32;19958;-51
2021/03/04 05:14:08;;;;;;;;;;;;;;;16.89;39.80;100355.00;4428518;32;19953;-52
2021/03/04 05:16:34;;;;;;;;;;;;;;;16.93;39.69;100360.41;4429307;32;19958;-54
2021/03/04 05:19:00;;;;;;;;;;;;;;;16.88;39.71;100362.00;4426305;32;19995;-52
2021/03/04 05:21:26;;;;;;;;;;;;;;;16.84;39.78;100358.38;4428767;32;19954;-51
2021/03/04 05:23:52;;;;;;;;;;;;;;;16.89;39.79;100365.53;4427615;32;19962;-53
2021/03/04 05:26:18;;;;;;;;;;;;;;;16.90;39.65;100359.41;4429348;32;19946;-52
2021/03/04 05:28:44;;;;;;;;;;;;;;;16.85;39.75;100354.03;4431260;32;20042;-53
2021/03/04 05:31:10;;;;;;;;;;;;;;;16.85;39.85;100354.94;4431561;32;19953;-52
2021/03/04 05:33:36;;;;;;;;;;;;;;;16.82;39.88;100352.19;4428221;32;20286;-52
2021/03/04 05:36:01;;;;;;;;;;;;;;;16.88;39.78;100355.87;4431477;32;19946;-51
2021/03/04 05:38:27;;;;;;;;;;;;;;;16.86;39.84;100361.06;4427934;32;19995;-49
2021/03/04 05:40:53;;;;;;;;;;;;;;;16.85;39.82;100365.47;4430304;32;20044;-51
2021/03/04 05:43:19;;;;;;;;;;;;;;;16.85;39.84;100359.28;4416838;32;19960;-51
2021/03/04 05:45:45;;;;;;;;;;;;;;;16.88;39.76;100355.87;4430075;32;20006;-52
2021/03/04 05:48:11;;;;;;;;;;;;;;;16.94;39.69;100350.75;4427580;32;20425;-50
2021/03/04 05:50:37;;;;;;;;;;;;;;;16.95;39.52;100353.44;4425874;32;20036;-52
2021/03/04 05:53:03;;;;;;;;;;;;;;;16.90;39.67;100347.12;4427237;32;19964;-49
2021/03/04 05:55:29;;;;;;;;;;;;;;;16.90;39.72;100346.28;4428645;32;19984;-52
2021/03/04 05:57:55;;;;;;;;;;;;;;;16.94;39.59;100337.59;4426771;32;19985;-54
2021/03/04 06:00:20;;;;;;;;;;;;;;;16.92;39.58;100328.78;4432211;32;19982;-51
2021/03/04 06:02:46;;;;;;;;;;;;;;;16.86;39.73;100327.78;4431735;32;20342;-53
2021/03/04 06:05:13;;;;;;;;;;;;;;;16.85;39.72;100319.84;4424755;32;20334;-53
2021/03/04 06:07:39;;;;;;;;;;;;;;;16.87;39.75;100336.56;4426379;32;19963;-54
2021/03/04 06:10:04;;;;;;;;;;;;;;;16.91;39.71;100332.25;4426858;32;20301;-49
2021/03/04 06:12:30;;;;;;;;;;;;;;;16.93;39.57;100342.00;4421721;32;19962;-51
2021/03/04 06:14:56;;;;;;;;;;;;;;;16.90;39.59;100333.13;4428071;32;19965;-51
2021/03/04 06:17:22;;;;;;;;;;;;;;;16.91;39.55;100327.00;4426659;32;21973;-49
2021/03/04 06:19:48;;;;;;;;;;;;;;;16.91;39.62;100332.25;4424202;32;20016;-52
2021/03/04 06:22:14;;;;;;;;;;;;;;;16.86;39.65;100319.91;4424677;32;19983;-51
2021/03/04 06:24:40;;;;;;;;;;;;;;;16.89;39.71;100312.94;4424518;32;19950;-54
2021/03/04 06:27:06;;;;;;;;;;;;;;;16.86;39.66;100319.91;4426232;32;19957;-53
2021/03/04 06:29:32;;;;;;;;;;;;;;;16.95;39.51;100324.50;4423189;32;20294;-52
2021/03/04 06:31:58;;;;;;;;;;;;;;;17.00;39.49;100317.63;4425707;32;19968;-54
2021/03/04 06:34:23;;;;;;;;;;;;;;;16.94;39.61;100327.06;4422915;32;19976;-53
2021/03/04 06:36:49;;;;;;;;;;;;;;;17.00;39.39;100312.38;4426883;32;20138;-51
2021/03/04 06:39:15;;;;;;;;;;;;;;;16.89;39.66;100311.16;4424157;32;19976;-52
2021/03/04 06:41:41;;;;;;;;;;;;;;;16.86;39.68;100304.13;4425816;32;20426;-50
2021/03/04 06:44:07;;;;;;;;;;;;;;;16.93;39.54;100312.16;4423866;32;19976;-49
2021/03/04 06:46:33;;;;;;;;;;;;;;;16.87;39.72;100299.72;4426687;32;19956;-50
2021/03/04 06:48:59;;;;;;;;;;;;;;;16.85;39.71;100304.97;4425690;32;20327;-53
2021/03/04 06:51:25;;;;;;;;;;;;;;;16.95;39.51;100289.38;4426857;32;19961;-53
2021/03/04 06:53:51;;;;;;;;;;;;;;;16.93;39.58;100293.72;4425210;32;19985;-50
2021/03/04 06:56:17;;;;;;;;;;;;;;;16.92;39.64;100298.13;4422638;32;19989;-54
2021/03/04 06:58:43;;;;;;;;;;;;;;;16.97;39.52;100292.94;4426269;32;19968;-52
2021/03/04 07:01:09;;;;;;;;;;;;;;;16.94;39.57;100291.16;4423631;32;19972;-52
2021/03/04 07:03:34;;;;;;;;;;;;;;;16.94;39.55;100282.34;4424497;32;19968;-50
2021/03/04 07:06:00;;;;;;;;;;;;;;;16.94;39.56;100280.63;4423697;32;19985;-49
2021/03/04 07:08:26;;;;;;;;;;;;;;;16.93;39.57;100285.84;4423715;32;19961;-52
2021/03/04 07:10:52;;;;;;;;;;;;;;;16.95;39.57;100292.03;4423973;32;19958;-52
2021/03/04 07:13:18;;;;;;;;;;;;;;;16.85;39.75;100297.06;4424949;32;20377;-53
2021/03/04 07:15:44;;;;;;;;;;;;;;;16.91;39.70;100296.31;4423818;32;19980;-52
2021/03/04 07:18:10;;;;;;;;;;;;;;;16.90;39.72;100293.66;4424959;32;20032;-51
2021/03/04 07:20:36;;;;;;;;;;;;;;;16.92;39.63;100307.75;4430280;32;19991;-52
2021/03/04 07:23:02;;;;;;;;;;;;;;;16.97;39.62;100296.47;4424113;32;19965;-51
2021/03/04 07:25:29;;;;;;;;;;;;;;;16.95;39.60;100297.28;4429278;32;20256;-54
2021/03/04 07:27:54;;;;;;;;;;;;;;;16.94;39.66;100300.78;4426710;32;20354;-50
2021/03/04 07:30:20;;;;;;;;;;;;;;;16.91;39.76;100290.19;4426056;32;19972;-54
2021/03/04 07:32:46;;;;;;;;;;;;;;;16.95;39.77;100284.13;4425138;32;19988;-52
2021/03/04 07:35:12;;;;;;;;;;;;;;;16.98;39.64;100287.72;4427093;32;19984;-53
2021/03/04 07:37:38;;;;;;;;;;;;;;;16.94;39.73;100284.97;4426437;32;20014;-53
2021/03/04 07:40:04;;;;;;;;;;;;;;;16.96;39.63;100280.66;4425151;32;19970;-52
2021/03/04 07:42:30;;;;;;;;;;;;;;;16.98;39.65;100276.34;4426930;32;19962;-52
2021/03/04 07:44:57;;;;;;;;;;;;;;;16.99;39.64;100272.84;4427276;32;20283;-50
2021/03/04 07:47:23;;;;;;;;;;;;;;;17.02;39.63;100267.69;4424681;32;20440;-54
2021/03/04 07:49:49;;;;;;;;;;;;;;;17.00;39.73;100266.78;4427262;32;19997;-51
2021/03/04 07:52:14;;;;;;;;;;;;;;;16.99;39.68;100265.88;4427746;32;19957;-47
2021/03/04 07:54:40;;;;;;;;;;;;;;;17.08;39.54;100264.31;4424517;32;19954;-49
2021/03/04 07:57:06;;;;;;;;;;;;;;;17.06;39.59;100261.66;4426643;32;20263;-48
2021/03/04 07:59:32;;;;;;;;;;;;;;;17.06;39.61;100264.28;4424807;32;20064;-53
2021/03/04 08:01:58;;;;;;;;;;;;;;;17.04;39.72;100258.09;4427303;32;19954;-48
2021/03/04 08:04:24;;;;;;;;;;;;;;;17.06;39.70;100266.03;4426100;32;19966;-53
2021/03/04 08:06:50;;;;;;;;;;;;;;;17.05;39.70;100264.25;4427252;32;19950;-51
2021/03/04 08:09:16;;;;;;;;;;;;;;;17.06;39.68;100271.28;4424018;32;19961;-49
2021/03/04 08:11:41;;;;;;;;;;;;;;;17.10;39.63;100266.16;4427138;32;20049;-51
2021/03/04 08:14:07;;;;;;;;;;;;;;;17.09;39.62;100269.59;4423971;32;20010;-47
2021/03/04 08:16:33;;;;;;;;;;;;;;;17.09;39.72;100272.22;4424604;32;19968;-53
2021/03/04 08:18:59;;;;;;;;;;;;;;;17.13;39.59;100266.22;4417966;32;19972;-49
2021/03/04 08:21:25;;;;;;;;;;;;;;;17.17;39.51;100268.91;4428204;32;19958;-50
2021/03/04 08:23:51;;;;;;;;;;;;;;;17.21;39.44;100263.75;4424783;32;19991;-51
2021/03/04 08:26:17;;;;;;;;;;;;;;;17.19;39.51;100259.31;4428175;32;19954;-52
2021/03/04 08:28:43;;;;;;;;;;;;;;;17.14;39.58;100251.31;4425563;32;19970;-51
2021/03/04 08:31:09;;;;;;;;;;;;;;;17.18;39.55;100239.09;4426829;32;20382;-49
2021/03/04 08:33:35;;;;;;;;;;;;;;;17.23;39.47;100240.13;4426573;32;20048;-49
2021/03/04 08:36:01;;;;;;;;;;;;;;;17.24;39.44;100248.03;4427069;32;19997;-53
2021/03/04 08:38:27;;;;;;;;;;;;;;;17.20;39.51;100250.56;4421075;32;19949;-51
2021/03/04 08:40:53;;;;;;;;;;;;;;;17.21;39.55;100247.06;4426054;32;20395;-51
2021/03/04 08:43:19;;;;;;;;;;;;;;;17.24;39.50;100255.06;4427739;32;20036;-49
2021/03/04 08:45:45;;;;;;;;;;;;;;;17.22;39.52;100249.75;4425160;32;19961;-48
2021/03/04 08:48:11;;;;;;;;;;;;;;;17.24;39.53;100239.28;4425728;32;19985;-51
2021/03/04 08:50:37;;;;;;;;;;;;;;;17.30;39.45;100220.97;4421490;32;20391;-52
2021/03/04 08:53:03;;;;;;;;;;;;;;;17.27;39.50;100218.28;4425988;32;19958;-48
2021/03/04 08:55:29;;;;;;;;;;;;;;;17.26;39.54;100217.38;4427467;32;19997;-52
2021/03/04 08:57:55;;;;;;;;;;;;;;;17.30;39.48;100220.09;4427608;32;20586;-50
2021/03/04 09:00:21;;;;;;;;;;;;;;;17.29;39.52;100219.19;4423491;32;19993;-50
2021/03/04 09:02:47;;;;;;;;;;;;;;;17.26;39.58;100224.41;4430098;32;19957;-53
2021/03/04 09:05:13;;;;;;;;;;;;;;;17.23;39.69;100221.72;4414171;32;20002;-51
2021/03/04 09:07:39;;;;;;;;;;;;;;;17.21;39.72;100231.28;4428274;32;20017;-53
2021/03/04 09:10:05;;;;;;;;;;;;;;;17.21;39.72;100220.75;4424634;32;20393;-51
2021/03/04 09:12:31;;;;;;;;;;;;;;;17.26;39.67;100234.94;4430141;32;19990;-51
2021/03/04 09:14:57;;;;;;;;;;;;;;;17.29;39.61;100221.81;4428397;32;19958;-49
2021/03/04 09:17:23;;;;;;;;;;;;;;;17.33;39.54;100207.88;4411021;32;20056;-52
2021/03/04 09:19:49;;;;;;;;;;;;;;;17.41;39.43;100208.06;4425502;32;19954;-51
2021/03/04 09:22:15;;;;;;;;;;;;;;;17.48;39.29;100198.56;4429341;32;19961;-49
2021/03/04 09:24:41;;;;;;;;;;;;;;;17.47;39.30;100196.75;4427159;32;20299;-51
2021/03/04 09:27:07;;;;;;;;;;;;;;;17.47;39.34;100191.50;4428127;32;20016;-50
2021/03/04 09:29:32;;;;;;;;;;;;;;;17.50;39.28;100197.72;4426592;32;19958;-54
2021/03/04 09:31:59;;;;;;;;;;;;;;;17.53;39.28;100212.69;4427479;32;20388;-52
2021/03/04 09:34:25;;;;;;;;;;;;;;;17.58;39.21;100210.16;4424958;32;20072;-53
2021/03/04 09:36:51;;;;;;;;;;;;;;;17.65;39.02;100202.44;4426881;32;19950;-50
2021/03/04 09:39:17;;;;;;;;;;;;;;;17.65;39.00;100197.16;4427606;32;19965;-49
2021/03/04 09:41:43;;;;;;;;;;;;;;;17.66;38.99;100193.66;4429559;32;19957;-50
2021/03/04 09:44:08;;;;;;;;;;;;;;;17.67;39.01;100194.56;4424540;32;19995;-50
2021/03/04 09:46:35;;;;;;;;;;;;;;;17.69;39.01;100195.47;4420900;32;19961;-54
2021/03/04 09:49:01;;;;;;;;;;;;;;;17.69;39.01;100192.84;4426635;32;20445;-50
2021/03/04 09:51:27;;;;;;;;;;;;;;;17.74;38.93;100190.31;4424820;32;19998;-50
2021/03/04 09:53:52;;;;;;;;;;;;;;;17.76;38.89;100193.88;4429224;32;20525;-52
2021/03/04 09:56:19;;;;;;;;;;;;;;;17.77;38.89;100190.38;4423371;32;19969;-53
2021/03/04 09:58:45;;;;;;;;;;;;;;;17.77;38.89;100190.38;4421627;32;19972;-53
2021/03/04 10:01:11;;;;;;;;;;;;;;;17.78;38.90;100192.16;4420784;32;20428;-53
2021/03/04 10:03:36;;;;;;;;;;;;;;;17.70;39.00;100190.22;4427001;32;19961;-49
2021/03/04 10:06:03;;;;;;;;;;;;;;;17.72;39.08;100186.72;4405176;32;19959;-51
2021/03/04 10:08:29;;;;;;;;;;;;;;;17.78;38.98;100192.16;4420622;32;19994;-52
2021/03/04 10:10:55;;;;;;;;;;;;;;;17.82;38.90;100183.44;4401965;32;20039;-51
2021/03/04 10:13:21;;;;;;;;;;;;;;;17.83;38.87;100177.31;4404774;32;19989;-52
2021/03/04 10:15:47;;;;;;;;;;;;;;;17.85;38.83;100178.25;4401440;32;19988;-49
2021/03/04 10:18:13;;;;;;;;;;;;;;;17.84;38.83;100166.81;4399656;32;20013;-51
2021/03/04 10:20:40;;;;;;;;;;;;;;;17.83;38.86;100165.03;4402554;32;19958;-50
2021/03/04 10:23:06;;;;;;;;;;;;;;;17.84;38.89;100169.44;4398738;32;19996;-51
2021/03/04 10:25:32;;;;;;;;;;;;;;;17.87;38.88;100168.63;4400867;32;19958;-53
2021/03/04 10:27:59;;;;;;;;;;;;;;;17.88;38.88;100178.31;4407654;32;19955;-48
2021/03/04 10:30:26;;;;;;;;;;;;;;;17.89;38.90;100169.53;4408768;32;19999;-50
2021/03/04 10:32:52;;;;;;;;;;;;;;;17.90;38.85;100166.03;4409048;32;19966;-48
2021/03/04 10:35:18;;;;;;;;;;;;;;;17.91;38.86;100159.03;4412440;32;20339;-53
2021/03/04 10:37:44;;;;;;;;;;;;;;;17.91;38.84;100159.91;4412355;32;19957;-49
2021/03/04 10:40:10;;;;;;;;;;;;;;;17.92;38.85;100153.78;4412768;32;19961;-52
2021/03/04 10:42:36;;;;;;;;;;;;;;;17.94;38.85;100152.06;4411625;32;19996;-50
2021/03/04 10:45:02;;;;;;;;;;;;;;;17.91;38.88;100148.50;4404959;32;19958;-49
2021/03/04 10:47:28;;;;;;;;;;;;;;;17.69;39.37;100143.69;4411459;32;20482;-48
2021/03/04 10:49:54;;;;;;;;;;;;;;;17.76;39.23;100149.09;4415429;32;19958;-51
2021/03/04 10:52:20;;;;;;;;;;;;;;;17.78;39.21;100145.63;4414732;32;20035;-45
2021/03/04 10:54:46;;;;;;;;;;;;;;;17.81;39.18;100142.16;4410717;32;19996;-47
2021/03/04 10:57:12;;;;;;;;;;;;;;;17.79;39.25;100142.13;4412715;32;20084;-51
2021/03/04 10:59:37;;;;;;;;;;;;;;;17.90;39.09;100147.59;4414147;32;19958;-50
2021/03/04 11:02:03;;;;;;;;;;;;;;;17.98;38.89;100146.00;4413180;32;19954;-50
2021/03/04 11:04:29;;;;;;;;;;;;;;;17.92;39.01;100148.50;4414318;32;20394;-49
2021/03/04 11:06:55;;;;;;;;;;;;;;;18.02;38.89;100146.06;4413079;32;20061;-50
2021/03/04 11:09:21;;;;;;;;;;;;;;;18.05;38.79;100138.22;4413924;32;20001;-53
2021/03/04 11:11:47;;;;;;;;;;;;;;;18.04;38.78;100142.63;4413059;32;20658;-52
2021/03/04 11:14:13;;;;;;;;;;;;;;;18.03;38.77;100134.69;4414644;32;20491;-50
2021/03/04 11:16:39;;;;;;;;;;;;;;;18.03;38.75;100135.59;4415123;32;19957;-48
2021/03/04 11:19:05;;;;;;;;;;;;;;;17.97;38.85;100141.59;4412124;32;20333;-52
2021/03/04 11:21:31;;;;;;;;;;;;;;;17.98;38.90;100132.84;4413270;32;19995;-50
2021/03/04 11:23:57;;;;;;;;;;;;;;;18.01;38.84;100125.84;4414608;32;19950;-51
2021/03/04 11:26:22;;;;;;;;;;;;;;;17.95;38.96;100122.22;4413282;32;20048;-49
2021/03/04 11:28:49;;;;;;;;;;;;;;;17.95;38.96;100111.69;4413458;32;19947;-50
2021/03/04 11:31:14;;;;;;;;;;;;;;;17.93;39.01;100110.75;4412564;32;19985;-50
2021/03/04 11:33:41;;;;;;;;;;;;;;;17.91;39.08;100112.50;4414161;32;20379;-53
2021/03/04 11:36:07;;;;;;;;;;;;;;;17.91;39.15;100114.25;4412621;32;20008;-46
2021/03/04 11:38:32;;;;;;;;;;;;;;;17.91;39.13;100112.50;4412564;32;19955;-49
2021/03/04 11:40:58;;;;;;;;;;;;;;;17.91;39.19;100103.72;4414630;32;19962;-52
2021/03/04 11:43:24;;;;;;;;;;;;;;;17.90;39.20;100108.09;4413981;32;19973;-49
2021/03/04 11:45:50;;;;;;;;;;;;;;;17.92;39.14;100098.47;4414736;32;19973;-52
2021/03/04 11:48:16;;;;;;;;;;;;;;;17.95;39.15;100095.88;4413349;32;20359;-50
2021/03/04 11:50:42;;;;;;;;;;;;;;;17.96;39.19;100087.13;4413857;32;19977;-52
2021/03/04 11:53:08;;;;;;;;;;;;;;;17.98;39.15;100093.31;4412587;32;20016;-51
2021/03/04 11:55:34;;;;;;;;;;;;;;;18.00;39.11;100084.53;4414774;32;20406;-47
2021/03/04 11:57:59;;;;;;;;;;;;;;;18.00;39.10;100088.06;4413840;32;20001;-48
2021/03/04 12:00:25;;;;;;;;;;;;;;;18.02;39.14;100085.47;4407150;32;20290;-53
2021/03/04 12:02:51;;;;;;;;;;;;;;;18.04;39.10;100078.50;4411478;32;20008;-50
2021/03/04 12:05:17;;;;;;;;;;;;;;;18.08;39.11;100075.03;4412406;32;20057;-52
2021/03/04 12:07:43;;;;;;;;;;;;;;;18.06;39.10;100082.94;4411796;32;20390;-51
2021/03/04 12:10:09;;;;;;;;;;;;;;;18.08;39.47;100075.03;4411891;32;19962;-51
2021/03/04 12:12:36;;;;;;;;;;;;;;;18.08;39.42;100075.03;4412093;32;19992;-52
2021/03/04 12:15:01;;;;;;;;;;;;;;;18.10;39.52;100073.34;4412592;32;20045;-47
2021/03/04 12:17:27;;;;;;;;;;;;;;;18.07;39.53;100071.53;4408676;32;19977;-51
2021/03/04 12:19:53;;;;;;;;;;;;;;;18.09;39.65;100066.31;4412476;32;20008;-50
2021/03/04 12:22:19;;;;;;;;;;;;;;;18.09;39.72;100067.16;4413239;32;19983;-52
2021/03/04 12:24:45;;;;;;;;;;;;;;;18.13;39.60;100057.56;4413703;32;19958;-49
2021/03/04 12:27:11;;;;;;;;;;;;;;;18.19;39.64;100049.75;4415443;32;19985;-48